Terminal Aerodrome Forecast
Issued by NWS

Home | Current Version | Previous Version | Text Only | Print | Product List | Glossary On
Versions: 1 2 3 4 5 6 7 8 9 10 11 12 13 14 15
000
FTUS44 KMAF 172300
TAFPEQ
TAF
KPEQ 172323Z 1800/1824 26015G20KT P6SM FEW250
     FM180100 25006KT P6SM FEW250
     FM181200 26005KT P6SM BKN200=

USA.gov is the U.S. government's official web portal to all federal, state and local government web resources and services.